Time;durP1;ratioP1;P1;durP2;ratioP2;P2;SDS_P1;SDS_P2;PMS_P1;PMS_P2;Temp;Humidity;BMP_temperature;BMP_pressure;BME280_temperature;BME280_humidity;BME280_pressure;Samples;Min_cycle;Max_cycle;Signal;HPM_P1;HPM_P2
2022/07/27 00:01:24;;;;;;;3.70;1.80;;;;;;;24.93;64.39;97367.00;5071557;28;20270;-21
2022/07/27 00:03:50;;;;;;;2.10;1.90;;;;;;;24.93;63.94;97364.44;5071713;28;20582;-21
2022/07/27 00:06:17;;;;;;;2.13;1.90;;;;;;;24.93;64.49;97361.00;5072154;28;20220;-21
2022/07/27 00:08:44;;;;;;;1.93;1.77;;;;;;;24.93;64.43;97355.88;5072282;28;20196;-21
2022/07/27 00:11:10;;;;;;;2.20;2.00;;;;;;;24.92;64.41;97357.56;5072059;28;20212;-21
2022/07/27 00:13:37;;;;;;;1.97;1.83;;;;;;;24.93;64.13;97368.72;5071954;28;20280;-21
2022/07/27 00:16:04;;;;;;;2.10;1.90;;;;;;;24.93;64.63;97373.88;5071295;28;20227;-21
2022/07/27 00:18:31;;;;;;;2.60;1.83;;;;;;;24.92;64.50;97382.41;5072456;28;20613;-21
2022/07/27 00:20:57;;;;;;;3.27;1.80;;;;;;;24.92;64.22;97377.25;5070741;28;20251;-21
2022/07/27 00:23:24;;;;;;;2.00;1.60;;;;;;;24.91;64.57;97386.72;5071755;28;20239;-20
2022/07/27 00:25:50;;;;;;;2.00;1.67;;;;;;;24.93;64.20;97390.13;5070835;28;20228;-21
2022/07/27 00:28:17;;;;;;;2.43;1.80;;;;;;;24.91;64.57;97385.84;5071987;28;20712;-21
2022/07/27 00:30:43;;;;;;;2.00;1.90;;;;;;;24.93;64.72;97384.16;5071119;28;20228;-21
2022/07/27 00:33:10;;;;;;;2.00;1.80;;;;;;;24.94;64.64;97378.16;5071394;28;20633;-21
2022/07/27 00:35:42;;;;;;;2.93;2.27;;;;;;;24.92;64.29;97365.28;5071683;28;20281;-21
2022/07/27 00:38:09;;;;;;;2.87;2.03;;;;;;;24.93;64.72;97358.44;5071459;28;20235;-21
2022/07/27 00:40:35;;;;;;;2.57;2.00;;;;;;;24.93;65.07;97358.44;5068602;28;20311;-21
2022/07/27 00:43:02;;;;;;;2.77;1.90;;;;;;;24.90;64.40;97358.41;5069431;28;20717;-21
2022/07/27 00:45:28;;;;;;;2.77;2.33;;;;;;;24.92;64.34;97361.84;5069823;28;20246;-21
2022/07/27 00:47:55;;;;;;;2.20;2.00;;;;;;;24.92;64.56;97359.25;5068836;28;20798;-21
2022/07/27 00:50:22;;;;;;;2.13;1.93;;;;;;;24.92;64.62;97355.00;5071898;28;20231;-21
2022/07/27 00:52:49;;;;;;;2.10;1.97;;;;;;;24.92;64.54;97351.56;5068491;28;20273;-21
2022/07/27 00:55:15;;;;;;;2.17;2.00;;;;;;;24.72;64.34;97322.16;5035172;28;20232;-21
2022/07/27 00:57:42;;;;;;;1.97;1.87;;;;;;;24.91;64.54;97355.84;5052002;28;20227;-21
2022/07/27 01:00:25;;;;;;;2.37;1.80;;;;;;;24.92;64.53;97348.97;5068768;28;20223;-21
2022/07/27 01:02:52;;;;;;;3.53;1.63;;;;;;;24.91;64.49;97334.41;5065129;28;20226;-20
2022/07/27 01:05:19;;;;;;;7.47;1.87;;;;;;;24.91;64.41;97343.00;5052559;28;20211;-21
2022/07/27 01:07:47;;;;;;;2.30;1.80;;;;;;;24.91;64.61;97343.00;5071140;28;20196;-21
2022/07/27 01:10:14;;;;;;;3.90;1.80;;;;;;;24.90;64.66;97341.25;5053155;28;20239;-21
2022/07/27 01:12:40;;;;;;;2.47;1.97;;;;;;;24.91;64.79;97343.00;5070814;28;20307;-20
2022/07/27 01:15:07;;;;;;;1.80;1.70;;;;;;;24.90;64.74;97346.38;5046353;28;20287;-21
2022/07/27 01:17:34;;;;;;;1.93;1.83;;;;;;;24.91;64.93;97345.56;5075016;28;20234;-21
2022/07/27 01:20:00;;;;;;;2.83;2.00;;;;;;;24.87;64.41;97341.22;5057582;28;20744;-21
2022/07/27 01:22:27;;;;;;;2.47;1.87;;;;;;;24.91;64.72;97344.69;5074641;28;20248;-21
2022/07/27 01:24:54;;;;;;;1.70;1.60;;;;;;;24.91;64.75;97347.25;5074441;28;20247;-21
2022/07/27 01:27:20;;;;;;;2.43;1.90;;;;;;;24.91;64.59;97344.69;5074094;28;20238;-21
2022/07/27 01:29:47;;;;;;;1.60;1.50;;;;;;;24.89;65.00;97334.41;5075243;28;20584;-21
2022/07/27 01:32:13;;;;;;;2.43;1.90;;;;;;;24.90;64.57;97333.53;5074767;28;20318;-21
2022/07/27 01:34:40;;;;;;;1.73;1.63;;;;;;;24.91;64.39;97342.13;5075009;28;20232;-21
2022/07/27 01:37:06;;;;;;;1.83;1.73;;;;;;;24.91;64.45;97344.69;5074099;28;20314;-21
2022/07/27 01:39:33;;;;;;;1.80;1.70;;;;;;;24.90;64.88;97333.53;5073958;28;20204;-21
2022/07/27 01:42:00;;;;;;;2.27;2.07;;;;;;;24.92;64.90;97333.56;5074198;28;20691;-21
2022/07/27 01:44:26;;;;;;;2.50;1.67;;;;;;;24.91;64.82;97329.28;5073244;28;20228;-21
2022/07/27 01:46:53;;;;;;;1.73;1.63;;;;;;;24.92;64.80;97318.13;5074430;28;21012;-21
2022/07/27 01:49:20;;;;;;;2.30;1.90;;;;;;;24.92;64.68;97323.28;5074443;28;20410;-21
2022/07/27 01:51:46;;;;;;;2.17;1.80;;;;;;;24.91;64.66;97308.69;5074100;28;20208;-21
2022/07/27 01:54:13;;;;;;;2.10;2.00;;;;;;;24.92;64.96;97320.69;5074356;28;20250;-21
2022/07/27 01:56:40;;;;;;;1.93;1.77;;;;;;;24.91;65.05;97311.28;5071498;28;20200;-21
2022/07/27 01:59:06;;;;;;;1.70;1.60;;;;;;;24.91;64.65;97319.00;5073567;28;20641;-21
2022/07/27 02:01:41;;;;;;;2.00;1.80;;;;;;;24.91;64.70;97306.13;5073569;28;20305;-21
2022/07/27 02:04:08;;;;;;;1.80;1.70;;;;;;;24.91;64.65;97298.41;5074204;28;20232;-21
2022/07/27 02:06:35;;;;;;;1.97;1.87;;;;;;;24.90;64.80;97294.13;5074402;28;20643;-21
2022/07/27 02:09:01;;;;;;;3.83;1.90;;;;;;;24.89;64.86;97288.13;5073952;28;20630;-21
2022/07/27 02:14:15;;;;;;;2.17;2.03;;;;;;;24.89;64.78;97290.69;5073671;28;20200;-21
2022/07/27 02:16:41;;;;;;;2.27;2.00;;;;;;;24.90;64.93;97294.97;5073674;28;20284;-21
2022/07/27 02:19:08;;;;;;;1.70;1.60;;;;;;;24.90;64.99;97286.41;5072766;28;20204;-21
2022/07/27 02:21:36;;;;;;;2.23;2.03;;;;;;;24.90;65.15;97278.72;5073951;28;20224;-21
2022/07/27 02:24:03;;;;;;;1.93;1.83;;;;;;;24.90;64.85;97282.13;5073975;28;20663;-21
2022/07/27 02:26:30;;;;;;;1.70;1.60;;;;;;;24.89;64.79;97275.25;5073542;28;20247;-21
2022/07/27 02:28:56;;;;;;;1.60;1.50;;;;;;;24.89;65.13;97282.09;5072544;28;20283;-21
2022/07/27 02:31:24;;;;;;;1.83;1.70;;;;;;;24.90;65.14;97281.28;5092236;22;20216;-32
2022/07/27 02:33:50;;;;;;;2.03;1.83;;;;;;;24.89;65.07;97284.66;5094754;28;20278;-31
2022/07/27 02:36:17;;;;;;;2.00;1.90;;;;;;;24.90;64.88;97286.41;5094594;28;20199;-31
2022/07/27 02:38:44;;;;;;;1.70;1.60;;;;;;;24.89;65.05;97288.13;5094186;28;20195;-31
2022/07/27 02:41:11;;;;;;;3.20;1.67;;;;;;;24.90;64.79;97294.13;5087547;28;20251;-31
2022/07/27 02:43:37;;;;;;;1.70;1.60;;;;;;;24.90;64.97;97297.53;5080556;28;20619;-31
2022/07/27 02:46:04;;;;;;;2.23;2.03;;;;;;;24.89;64.83;97294.97;5076654;28;20236;-31
2022/07/27 02:48:31;;;;;;;1.73;1.63;;;;;;;24.90;64.98;97302.69;5075839;28;20214;-31
2022/07/27 02:50:59;;;;;;;1.70;1.60;;;;;;;24.91;64.98;97295.84;5074913;28;20616;-31
2022/07/27 02:53:26;;;;;;;1.80;1.70;;;;;;;24.89;65.14;97285.53;5076943;28;20234;-31
2022/07/27 02:55:53;;;;;;;3.33;1.77;;;;;;;24.90;65.20;97296.72;5073424;28;20227;-31
2022/07/27 02:58:20;;;;;;;2.43;1.90;;;;;;;24.89;65.16;97300.97;5073858;28;20235;-31
2022/07/27 03:00:46;;;;;;;1.83;1.60;;;;;;;24.90;64.90;97299.28;5076577;28;20661;-31
2022/07/27 03:03:13;;;;;;;1.70;1.60;;;;;;;24.87;64.74;97300.09;5071441;28;20701;-31
2022/07/27 03:05:39;;;;;;;1.73;1.63;;;;;;;24.83;65.13;97285.47;5078787;28;20634;-31
2022/07/27 03:08:06;;;;;;;1.73;1.63;;;;;;;24.88;64.61;97306.97;5075903;28;20223;-31
2022/07/27 03:10:33;;;;;;;1.80;1.70;;;;;;;24.90;64.46;97310.41;5079156;28;20200;-31
2022/07/27 03:12:59;;;;;;;2.20;1.60;;;;;;;24.90;65.04;97319.84;5076676;28;20228;-31
2022/07/27 03:15:26;;;;;;;1.97;1.80;;;;;;;24.88;64.66;97304.41;5078232;28;20755;-31
2022/07/27 03:17:53;;;;;;;2.10;1.90;;;;;;;24.90;64.72;97307.00;5083094;28;20204;-31
2022/07/27 03:20:19;;;;;;;2.23;1.50;;;;;;;24.89;64.96;97306.13;5075100;28;20204;-31
2022/07/27 03:22:46;;;;;;;1.70;1.60;;;;;;;24.85;64.90;97312.06;5083530;28;20243;-31
2022/07/27 03:25:12;;;;;;;1.70;1.60;;;;;;;24.89;64.48;97318.97;5073496;28;20247;-31
2022/07/27 03:27:39;;;;;;;1.57;1.40;;;;;;;24.89;64.64;97318.97;5079048;28;20231;-31
2022/07/27 03:30:06;;;;;;;1.53;1.43;;;;;;;24.89;64.70;97318.97;5072482;28;20291;-31
2022/07/27 03:32:33;;;;;;;1.73;1.63;;;;;;;24.89;64.76;97326.69;5072920;28;20307;-31
2022/07/27 03:34:59;;;;;;;1.73;1.63;;;;;;;24.89;64.49;97318.97;5072632;28;20242;-31
2022/07/27 03:37:26;;;;;;;1.90;1.80;;;;;;;24.90;65.01;97312.97;5074785;28;20239;-31
2022/07/27 03:39:53;;;;;;;1.80;1.70;;;;;;;24.90;64.63;97317.28;5078146;28;20659;-31
2022/07/27 03:42:19;;;;;;;1.70;1.60;;;;;;;24.90;64.88;97310.41;5073572;28;20283;-31
2022/07/27 03:44:46;;;;;;;1.80;1.70;;;;;;;24.90;64.72;97312.97;5082409;28;20242;-31
2022/07/27 03:47:13;;;;;;;1.73;1.63;;;;;;;24.88;64.94;97314.69;5081750;28;20677;-31
2022/07/27 03:49:39;;;;;;;2.20;1.90;;;;;;;24.90;64.76;97307.00;5077279;28;20200;-31
2022/07/27 03:52:06;;;;;;;1.80;1.70;;;;;;;24.89;64.57;97306.13;5070757;28;20749;-31
2022/07/27 03:54:32;;;;;;;1.70;1.60;;;;;;;24.90;64.48;97307.00;5073461;28;20689;-31
2022/07/27 03:57:00;;;;;;;1.60;1.50;;;;;;;24.89;65.16;97308.69;5079125;28;20200;-31
2022/07/27 03:59:27;;;;;;;2.03;1.90;;;;;;;24.86;65.07;97300.94;5080475;28;20265;-31
2022/07/27 04:01:53;;;;;;;1.70;1.60;;;;;;;24.89;64.64;97310.38;5078330;28;20666;-31
2022/07/27 04:04:20;;;;;;;2.00;1.80;;;;;;;24.89;64.63;97302.66;5073355;28;20243;-31
2022/07/27 04:06:46;;;;;;;1.70;1.60;;;;;;;24.89;64.56;97292.38;5070808;28;20667;-31
2022/07/27 04:09:15;;;;;;;1.93;1.70;;;;;;;24.90;64.58;97296.72;5077402;28;20648;-31
2022/07/27 04:11:44;;;;;;;2.03;1.83;;;;;;;24.90;64.81;97289.00;5080347;28;20698;-31
2022/07/27 04:14:16;;;;;;;1.80;1.70;;;;;;;24.90;64.60;97294.13;5074154;28;20670;-31
2022/07/27 04:16:43;;;;;;;2.00;1.80;;;;;;;24.89;63.96;97297.53;5069096;28;20285;-31
2022/07/27 04:19:09;;;;;;;2.03;1.80;;;;;;;24.89;63.80;97302.66;5076050;28;20357;-31
2022/07/27 04:21:37;;;;;;;4.17;1.90;;;;;;;24.81;63.23;97294.84;5070058;28;20710;-31
2022/07/27 04:24:04;;;;;;;3.00;2.23;;;;;;;24.88;62.96;97304.41;5071095;28;20285;-31
2022/07/27 04:26:30;;;;;;;2.27;2.00;;;;;;;24.87;62.44;97310.34;5076829;28;20193;-31
2022/07/27 04:28:57;;;;;;;2.37;2.10;;;;;;;24.88;62.51;97304.41;5071182;28;20232;-31
2022/07/27 04:31:23;;;;;;;2.60;2.10;;;;;;;24.88;61.52;97290.66;5076336;28;20216;-31
2022/07/27 04:33:50;;;;;;;2.17;1.97;;;;;;;24.87;61.67;97289.78;5072461;28;20226;-31
2022/07/27 04:36:16;;;;;;;3.23;2.10;;;;;;;24.87;61.21;97292.38;5077820;28;20269;-31
2022/07/27 04:38:43;;;;;;;3.20;2.07;;;;;;;24.88;60.74;97300.97;5074172;28;20275;-31
2022/07/27 04:41:10;;;;;;;3.00;2.00;;;;;;;24.87;60.15;97283.81;5073811;28;20303;-31
2022/07/27 04:43:36;;;;;;;2.73;2.03;;;;;;;24.87;60.27;97301.81;5073773;28;20291;-31
2022/07/27 04:46:03;;;;;;;3.07;2.10;;;;;;;24.87;59.54;97305.22;5077726;28;20235;-31
2022/07/27 04:48:33;;;;;;;5.50;2.20;;;;;;;24.86;59.62;97306.06;5073878;28;20258;-31
2022/07/27 04:51:00;;;;;;;2.63;2.13;;;;;;;24.86;59.07;97312.91;5080637;28;20246;-31
2022/07/27 04:53:26;;;;;;;2.43;2.03;;;;;;;24.86;58.49;97297.50;5076705;28;20225;-31
2022/07/27 04:55:53;;;;;;;3.10;2.17;;;;;;;24.85;59.37;97295.78;5073355;28;20203;-31
2022/07/27 04:58:20;;;;;;;2.40;2.20;;;;;;;24.83;60.10;97293.19;5074075;28;20197;-31
2022/07/27 05:00:47;;;;;;;2.20;2.00;;;;;;;24.85;60.20;97303.50;5079267;28;20199;-31
2022/07/27 05:03:13;;;;;;;4.30;2.50;;;;;;;24.85;61.18;97316.34;5075877;28;20224;-31
2022/07/27 05:05:40;;;;;;;7.80;2.63;;;;;;;24.85;61.81;97314.63;5074685;28;20236;-31
2022/07/27 05:08:16;;;;;;;3.70;2.83;;;;;;;24.87;62.38;97317.22;5075454;28;20203;-31
2022/07/27 05:10:42;;;;;;;5.23;3.00;;;;;;;24.86;62.79;97313.78;5077996;28;20647;-31
2022/07/27 05:13:09;;;;;;;7.80;3.63;;;;;;;24.85;63.30;97312.06;5070916;28;20216;-31
2022/07/27 05:15:36;;;;;;;8.73;4.10;;;;;;;24.87;63.32;97324.94;5071906;28;20239;-31
2022/07/27 05:18:21;;;;;;;7.57;3.63;;;;;;;24.88;61.28;97326.66;5072045;28;20196;-31
2022/07/27 05:20:48;;;;;;;11.00;3.13;;;;;;;24.87;60.33;97328.34;5072906;28;20291;-31
2022/07/27 05:23:16;;;;;;;5.83;3.30;;;;;;;24.84;58.84;97328.31;5072462;28;20250;-31
2022/07/27 05:25:42;;;;;;;8.53;3.13;;;;;;;24.86;58.49;97334.34;5071638;28;20200;-31
2022/07/27 05:28:10;;;;;;;3.53;2.93;;;;;;;24.85;57.75;97337.78;5073537;28;20232;-31
2022/07/27 05:30:37;;;;;;;5.30;3.17;;;;;;;24.84;57.28;97341.16;5073132;28;20201;-31
2022/07/27 05:33:04;;;;;;;8.20;3.30;;;;;;;24.84;56.76;97348.88;5072471;28;20774;-31
2022/07/27 05:35:31;;;;;;;7.57;2.73;;;;;;;24.78;56.33;97338.50;5069436;28;20582;-31
2022/07/27 05:37:57;;;;;;;5.43;2.73;;;;;;;24.83;55.90;97354.00;5070332;28;20231;-31
2022/07/27 05:40:25;;;;;;;6.50;2.87;;;;;;;24.82;55.42;97354.84;5072140;28;20551;-31
2022/07/27 05:42:52;;;;;;;4.40;2.73;;;;;;;24.81;55.49;97359.13;5070556;28;20724;-31
2022/07/27 05:45:18;;;;;;;6.07;2.80;;;;;;;24.79;55.42;97358.25;5079903;28;20215;-31
2022/07/27 05:47:45;;;;;;;5.37;3.27;;;;;;;24.81;55.00;97368.56;5072725;28;20196;-31
2022/07/27 05:50:12;;;;;;;5.57;3.07;;;;;;;24.80;55.63;97365.13;5078001;28;20291;-31
2022/07/27 05:52:38;;;;;;;4.27;2.87;;;;;;;24.79;55.11;97360.84;5079802;28;20217;-31
2022/07/27 05:55:05;;;;;;;6.17;3.30;;;;;;;24.80;54.96;97361.66;5072995;28;20197;-31
2022/07/27 05:57:32;;;;;;;4.73;2.93;;;;;;;24.79;55.27;97365.09;5076179;28;20235;-31
2022/07/27 06:00:00;;;;;;;5.33;3.23;;;;;;;24.75;55.47;97358.19;5069330;28;20313;-31
2022/07/27 06:02:28;;;;;;;7.17;3.20;;;;;;;24.79;55.69;97371.13;5075433;28;20672;-31
2022/07/27 06:04:55;;;;;;;6.90;3.40;;;;;;;24.79;57.03;97371.13;5078759;28;20568;-31
2022/07/27 06:10:07;;;;;;;8.03;2.93;;;;;;;24.80;58.66;97371.94;5080196;28;20257;-31
2022/07/27 06:12:38;;;;;;;5.20;3.40;;;;;;;24.78;59.38;97379.66;5074498;28;20285;-31
2022/07/27 06:15:06;;;;;;;9.03;3.50;;;;;;;24.81;59.77;97389.97;5076004;28;20200;-32
2022/07/27 06:17:32;;;;;;;4.37;3.00;;;;;;;24.79;59.95;97389.09;5076005;28;20820;-31
2022/07/27 06:19:59;;;;;;;4.73;2.93;;;;;;;24.83;59.80;97384.84;5074905;28;20236;-32
2022/07/27 06:22:25;;;;;;;7.63;3.10;;;;;;;24.82;59.13;97381.44;5078928;28;20239;-32
2022/07/27 06:24:52;;;;;;;5.53;3.47;;;;;;;24.83;59.13;97387.41;5079665;28;20239;-31
2022/07/27 06:27:19;;;;;;;4.30;2.90;;;;;;;24.82;60.00;97378.00;5078572;28;20232;-31
2022/07/27 06:29:45;;;;;;;4.57;3.23;;;;;;;24.78;60.23;97371.94;5080321;28;20575;-31
2022/07/27 06:32:12;;;;;;;4.80;3.00;;;;;;;24.81;60.13;97374.53;5076276;28;20315;-31
2022/07/27 06:34:39;;;;;;;4.53;3.03;;;;;;;24.82;60.46;97376.28;5076485;28;20196;-32
2022/07/27 06:37:08;;;;;;;4.67;2.77;;;;;;;24.80;60.85;97375.41;5071798;28;20287;-31
2022/07/27 06:39:35;;;;;;;3.87;2.60;;;;;;;24.82;60.86;97381.44;5079589;28;20641;-31
2022/07/27 06:42:02;;;;;;;9.03;3.03;;;;;;;24.82;60.83;97381.44;5077540;28;20314;-31
2022/07/27 06:44:28;;;;;;;4.73;2.97;;;;;;;24.82;60.63;97381.44;5070882;28;20283;-31
2022/07/27 06:46:55;;;;;;;3.70;2.83;;;;;;;24.83;61.34;97385.72;5071257;28;20287;-31
2022/07/27 06:49:22;;;;;;;4.73;3.00;;;;;;;24.83;61.13;97382.28;5073184;28;20265;-32
2022/07/27 06:51:48;;;;;;;4.23;2.87;;;;;;;24.83;61.18;97379.72;5067716;28;20240;-31
2022/07/27 06:54:15;;;;;;;3.17;2.67;;;;;;;24.75;61.15;97365.91;5062713;28;20292;-31
2022/07/27 06:56:42;;;;;;;3.77;2.70;;;;;;;24.83;61.26;97374.56;5062604;28;20358;-31
2022/07/27 06:59:08;;;;;;;4.17;2.43;;;;;;;24.83;61.21;97377.13;5063724;28;20265;-31
2022/07/27 07:01:35;;;;;;;3.53;2.80;;;;;;;24.83;61.81;97374.56;5060423;28;20223;-31
2022/07/27 07:04:02;;;;;;;3.43;2.80;;;;;;;24.81;61.79;97363.44;5072390;28;20649;-31
2022/07/27 07:06:28;;;;;;;3.97;2.63;;;;;;;24.83;61.91;97372.00;5071994;28;20216;-31
2022/07/27 07:08:55;;;;;;;2.70;2.50;;;;;;;24.83;61.66;97372.00;5077966;28;20287;-31
2022/07/27 07:11:22;;;;;;;6.50;2.70;;;;;;;24.83;62.00;97372.00;5072368;28;20244;-31
2022/07/27 07:13:48;;;;;;;4.33;2.67;;;;;;;24.82;61.76;97376.28;5071751;28;20326;-31
2022/07/27 07:16:15;;;;;;;6.67;2.40;;;;;;;24.82;61.71;97365.13;5074145;28;20250;-31
2022/07/27 07:18:41;;;;;;;3.77;2.67;;;;;;;24.76;62.06;97354.78;5067533;28;20207;-31
2022/07/27 07:21:08;;;;;;;3.80;2.60;;;;;;;24.79;62.17;97362.53;5075733;28;20647;-31
2022/07/27 07:23:35;;;;;;;4.63;2.47;;;;;;;24.81;62.31;97356.56;5079467;28;20242;-31
2022/07/27 07:26:01;;;;;;;3.23;2.30;;;;;;;24.82;62.21;97357.44;5071265;28;20659;-31
2022/07/27 07:28:28;;;;;;;4.67;3.07;;;;;;;24.79;62.37;97353.13;5081818;28;20236;-31
2022/07/27 07:30:54;;;;;;;3.70;2.50;;;;;;;24.81;62.23;97358.28;5072584;28;20223;-31
2022/07/27 07:33:21;;;;;;;2.90;2.50;;;;;;;24.81;62.27;97353.97;5072380;28;20224;-31
2022/07/27 07:35:47;;;;;;;3.60;2.70;;;;;;;24.80;62.20;97352.25;5074408;28;20230;-31
2022/07/27 07:38:34;;;;;;;3.83;2.40;;;;;;;24.80;62.25;97356.53;5077620;28;20211;-31
2022/07/27 07:41:02;;;;;;;2.97;2.67;;;;;;;24.80;62.60;97352.25;5077759;28;20243;-31
2022/07/27 07:43:29;;;;;;;4.13;2.93;;;;;;;24.80;62.26;97349.69;5076143;28;20251;-31
2022/07/27 07:45:56;;;;;;;3.33;2.37;;;;;;;24.78;62.21;97340.25;5072646;28;20227;-31
2022/07/27 07:48:23;;;;;;;3.33;2.70;;;;;;;24.81;62.58;97346.28;5076097;28;20644;-31
2022/07/27 07:50:49;;;;;;;3.67;2.40;;;;;;;24.80;62.44;97353.97;5079127;28;20642;-31
2022/07/27 07:53:22;;;;;;;4.23;2.80;;;;;;;24.82;62.48;97352.28;5078768;28;20293;-31
2022/07/27 07:55:49;;;;;;;2.77;2.50;;;;;;;24.81;62.34;97351.41;5076443;28;20200;-31
2022/07/27 07:58:16;;;;;;;4.47;2.50;;;;;;;24.81;62.41;97351.41;5071225;28;20651;-31
2022/07/27 08:00:43;;;;;;;4.43;2.63;;;;;;;24.80;62.59;97354.84;5075177;28;20304;-31
2022/07/27 08:03:10;;;;;;;3.07;2.33;;;;;;;24.81;62.64;97350.56;5071133;28;20224;-31
2022/07/27 08:05:36;;;;;;;4.77;2.40;;;;;;;24.81;62.94;97346.28;5073718;28;20200;-31
2022/07/27 08:08:03;;;;;;;3.30;2.47;;;;;;;24.81;62.99;97348.84;5080087;28;20401;-31
2022/07/27 08:10:30;;;;;;;3.27;2.43;;;;;;;24.80;62.42;97348.81;5074233;28;20241;-31
2022/07/27 08:12:57;;;;;;;2.67;2.20;;;;;;;24.73;62.49;97329.03;5070157;28;20340;-31
2022/07/27 08:15:23;;;;;;;3.53;2.60;;;;;;;24.80;62.81;97347.13;5078559;28;20641;-31
2022/07/27 08:18:02;;;;;;;2.40;2.20;;;;;;;24.80;63.19;97344.56;5070541;28;20203;-31
2022/07/27 08:20:30;;;;;;;3.80;2.53;;;;;;;24.81;62.83;97348.00;5070801;28;20269;-31
2022/07/27 08:22:56;;;;;;;2.77;2.27;;;;;;;24.79;62.66;97345.41;5071839;28;20223;-31
2022/07/27 08:25:23;;;;;;;3.27;2.30;;;;;;;24.80;62.68;97341.97;5070539;28;20236;-31
2022/07/27 08:27:50;;;;;;;3.23;2.77;;;;;;;24.81;63.05;97343.69;5070966;28;20633;-31
2022/07/27 08:30:16;;;;;;;2.57;2.30;;;;;;;24.81;63.05;97345.44;5073291;28;20228;-31
2022/07/27 08:32:57;;;;;;;4.53;2.67;;;;;;;24.81;63.02;97345.44;5093139;22;20327;-22
2022/07/27 08:35:24;;;;;;;2.73;2.40;;;;;;;24.80;63.14;97346.25;5084503;28;20290;-22
2022/07/27 08:37:51;;;;;;;2.43;2.23;;;;;;;24.81;63.06;97350.56;5085819;28;20195;-23
2022/07/27 08:40:18;;;;;;;2.60;2.40;;;;;;;24.79;62.91;97349.66;5080058;28;20204;-22
2022/07/27 08:43:04;;;;;;;3.07;2.53;;;;;;;24.80;63.34;97351.38;5083314;28;20234;-22
2022/07/27 08:45:31;;;;;;;2.80;2.53;;;;;;;24.72;62.89;97346.16;5081608;28;20203;-22
2022/07/27 08:47:58;;;;;;;3.67;2.30;;;;;;;24.80;63.14;97359.97;5080309;28;20227;-22
2022/07/27 08:50:29;;;;;;;4.30;2.47;;;;;;;24.69;62.93;97340.97;5085988;28;20307;-22
2022/07/27 08:52:56;;;;;;;2.63;2.33;;;;;;;24.37;62.90;97280.50;5085207;28;20219;-23
2022/07/27 08:55:23;;;;;;;2.53;2.20;;;;;;;24.82;63.05;97357.44;5074573;28;20217;-21
2022/07/27 08:57:51;;;;;;;3.57;2.20;;;;;;;24.81;63.40;97353.97;5084672;28;20246;-22
2022/07/27 09:00:17;;;;;;;3.17;2.43;;;;;;;24.82;62.89;97354.84;5082608;28;20270;-22
2022/07/27 09:02:44;;;;;;;3.70;2.37;;;;;;;24.81;62.87;97351.41;5082193;28;20227;-22
2022/07/27 09:05:11;;;;;;;2.73;2.20;;;;;;;24.81;62.64;97353.97;5085281;28;20219;-22
2022/07/27 09:07:38;;;;;;;3.20;2.20;;;;;;;24.81;63.29;97348.84;5087400;28;20446;-22
2022/07/27 09:10:05;;;;;;;3.43;2.60;;;;;;;24.81;63.35;97350.56;5077447;28;20585;-22
2022/07/27 09:12:31;;;;;;;3.50;2.40;;;;;;;24.81;63.33;97351.41;5084868;28;20241;-21
2022/07/27 09:15:12;;;;;;;3.17;2.20;;;;;;;24.81;63.36;97356.56;5079353;28;20257;-22
2022/07/27 09:17:40;;;;;;;2.90;2.60;;;;;;;24.63;63.07;97320.28;5076385;28;20445;-23
2022/07/27 09:20:17;;;;;;;4.40;2.50;;;;;;;24.81;63.07;97340.28;5081951;28;20207;-22
2022/07/27 09:22:51;;;;;;;2.80;2.17;;;;;;;24.81;62.98;97348.84;5086168;28;20231;-22
2022/07/27 09:25:21;;;;;;;2.80;2.30;;;;;;;24.81;63.26;97348.84;5085954;28;20200;-22
2022/07/27 09:28:07;;;;;;;3.10;2.33;;;;;;;24.80;63.11;97339.41;5087433;28;20229;-22
2022/07/27 09:30:45;;;;;;;2.70;2.07;;;;;;;24.80;63.65;97344.56;5089480;28;20256;-22
2022/07/27 09:33:13;;;;;;;2.77;2.37;;;;;;;24.74;63.39;97341.03;5085632;28;20230;-22
2022/07/27 09:35:40;;;;;;;2.40;2.20;;;;;;;24.80;63.05;97351.38;5082369;28;20203;-22
2022/07/27 09:38:36;;;;;;;2.43;2.23;;;;;;;24.80;63.57;97343.69;5087240;28;20200;-22
2022/07/27 09:41:04;;;;;;;2.50;2.30;;;;;;;24.80;63.65;97348.81;5079176;28;20290;-22
2022/07/27 09:43:43;;;;;;;3.40;2.53;;;;;;;24.80;63.63;97351.38;5088419;28;20752;-22
2022/07/27 09:46:31;;;;;;;4.20;2.37;;;;;;;24.80;63.68;97346.25;5083047;28;20195;-22
2022/07/27 09:48:57;;;;;;;2.63;2.43;;;;;;;24.80;63.29;97344.56;5088132;28;20200;-22
2022/07/27 09:51:24;;;;;;;3.17;2.63;;;;;;;24.79;63.57;97341.97;5085999;28;20326;-22
2022/07/27 09:54:11;;;;;;;2.77;2.50;;;;;;;24.80;63.79;97341.97;5085384;28;20208;-22
2022/07/27 09:56:38;;;;;;;2.47;2.27;;;;;;;24.79;63.78;97345.41;5090444;28;20200;-22
2022/07/27 09:59:05;;;;;;;4.87;2.73;;;;;;;24.80;63.68;97341.97;5083179;28;20299;-22
2022/07/27 10:01:33;;;;;;;2.43;2.23;;;;;;;24.81;63.77;97340.28;5087710;28;20199;-22
2022/07/27 10:04:02;;;;;;;2.57;2.20;;;;;;;24.70;63.73;97321.28;5089884;28;20705;-22
2022/07/27 10:06:28;;;;;;;2.67;2.47;;;;;;;24.75;63.45;97338.47;5084549;28;20720;-23
2022/07/27 10:09:08;;;;;;;3.03;2.27;;;;;;;24.82;63.75;97340.31;5084954;28;20235;-21
2022/07/27 10:11:35;;;;;;;3.33;2.30;;;;;;;24.81;63.20;97346.28;5089711;28;20242;-22
2022/07/27 10:14:02;;;;;;;2.30;2.10;;;;;;;24.81;63.70;97341.13;5072273;28;20303;-22
2022/07/27 10:16:30;;;;;;;2.60;2.40;;;;;;;24.82;63.44;97347.16;5090335;28;20277;-21
2022/07/27 10:19:30;;;;;;;2.47;2.27;;;;;;;24.82;63.43;97344.56;5086877;28;20306;-22
2022/07/27 10:21:57;;;;;;;2.63;2.10;;;;;;;24.81;63.78;97353.97;5088356;28;20254;-23
2022/07/27 10:24:32;;;;;;;2.40;2.10;;;;;;;24.81;63.50;97350.56;5089657;28;20314;-21
2022/07/27 10:27:16;;;;;;;3.17;2.30;;;;;;;24.80;63.68;97349.69;5088876;28;20289;-22
2022/07/27 10:29:42;;;;;;;2.97;2.20;;;;;;;24.81;63.92;97353.97;5088766;28;20250;-22
2022/07/27 10:32:09;;;;;;;4.80;2.33;;;;;;;24.80;63.71;97347.13;5090069;28;20259;-22
2022/07/27 10:34:40;;;;;;;3.03;2.30;;;;;;;24.81;63.70;97353.13;5089751;28;20627;-22
2022/07/27 10:37:07;;;;;;;2.63;2.43;;;;;;;24.80;63.77;97349.69;5081847;28;20330;-22
2022/07/27 10:39:36;;;;;;;5.73;2.60;;;;;;;24.80;64.01;97344.56;5090574;28;20231;-22
2022/07/27 10:42:30;;;;;;;3.03;2.30;;;;;;;24.80;63.85;97349.69;5089378;28;20247;-22
2022/07/27 10:45:03;;;;;;;4.37;2.80;;;;;;;24.80;63.48;97359.97;5082190;28;20253;-23
2022/07/27 10:47:37;;;;;;;4.33;3.13;;;;;;;24.81;63.47;97348.00;5076132;28;20291;-22
2022/07/27 10:50:18;;;;;;;4.17;2.70;;;;;;;24.80;63.85;97344.56;5075268;28;20302;-22
2022/07/27 10:52:49;;;;;;;5.10;3.60;;;;;;;24.81;63.60;97350.56;5087172;28;20302;-22
2022/07/27 10:55:36;;;;;;;6.10;3.40;;;;;;;24.81;63.54;97350.56;5084550;28;20682;-22
2022/07/27 10:58:09;;;;;;;4.87;3.67;;;;;;;24.80;63.93;97352.25;5085555;28;20282;-22
2022/07/27 11:00:48;;;;;;;7.03;3.57;;;;;;;24.81;63.80;97348.84;5082642;28;20281;-21
2022/07/27 11:03:27;;;;;;;6.10;3.77;;;;;;;24.80;64.07;97344.56;5088694;28;20219;-23
2022/07/27 11:05:57;;;;;;;6.27;3.87;;;;;;;24.80;64.02;97351.38;5087873;28;20278;-22
2022/07/27 11:08:42;;;;;;;6.87;3.77;;;;;;;24.81;63.59;97343.69;5084244;28;20669;-22
2022/07/27 11:11:22;;;;;;;7.63;4.30;;;;;;;24.83;63.75;97351.44;5083565;28;21071;-22
2022/07/27 11:13:53;;;;;;;7.60;4.67;;;;;;;24.82;63.84;97357.44;5089883;28;20310;-22
2022/07/27 11:16:20;;;;;;;4.90;3.70;;;;;;;24.82;63.52;97353.16;5080957;28;20317;-22
2022/07/27 11:19:02;;;;;;;7.23;4.43;;;;;;;24.82;63.74;97354.84;5086213;28;20584;-22
2022/07/27 11:21:31;;;;;;;8.57;4.70;;;;;;;24.82;63.77;97348.03;5086515;28;20703;-22
2022/07/27 11:24:04;;;;;;;6.13;4.73;;;;;;;24.83;63.51;97348.88;5088136;28;20314;-22
2022/07/27 11:26:39;;;;;;;6.90;4.33;;;;;;;24.83;63.68;97348.88;5083101;28;20231;-22
2022/07/27 11:29:08;;;;;;;8.60;5.10;;;;;;;24.80;63.50;97349.69;5078908;28;20286;-23
2022/07/27 11:31:36;;;;;;;7.43;4.67;;;;;;;24.78;63.65;97337.69;5079544;28;20210;-22
2022/07/27 11:34:32;;;;;;;7.37;4.80;;;;;;;24.81;63.67;97342.84;5082052;28;20213;-22
2022/07/27 11:37:03;;;;;;;8.00;4.90;;;;;;;24.75;63.71;97329.94;5086855;28;20286;-22
2022/07/27 11:39:31;;;;;;;10.63;5.30;;;;;;;24.81;63.79;97338.56;5087559;28;20231;-22
2022/07/27 11:42:18;;;;;;;11.10;5.93;;;;;;;24.82;63.74;97349.72;5079828;28;20227;-22
2022/07/27 11:44:49;;;;;;;13.93;5.13;;;;;;;24.81;63.80;97340.28;5079464;28;20393;-22
2022/07/27 11:47:17;;;;;;;11.03;5.70;;;;;;;24.80;63.72;97339.41;5084625;28;20207;-22